createdAt,value
2023-05-09T00:01:09.926Z,1.80
2023-05-09T00:03:41.035Z,2.20
2023-05-09T00:06:13.722Z,2.05
2023-05-09T00:08:44.555Z,2.33
2023-05-09T00:11:17.974Z,2.30
2023-05-09T00:13:49.275Z,2.70
2023-05-09T00:16:20.907Z,2.40
2023-05-09T00:18:51.839Z,2.10
2023-05-09T00:21:22.802Z,2.72
2023-05-09T00:23:53.679Z,2.60
2023-05-09T00:26:27.317Z,2.08
2023-05-09T00:28:58.102Z,2.30
2023-05-09T00:31:28.931Z,2.28
2023-05-09T00:33:59.903Z,1.95
2023-05-09T00:36:30.919Z,2.08
2023-05-09T00:39:01.827Z,2.20
2023-05-09T00:41:35.220Z,2.55
2023-05-09T00:44:06.266Z,2.38
2023-05-09T00:46:37.399Z,2.42
2023-05-09T00:49:08.856Z,2.95
2023-05-09T00:51:40.372Z,2.60
2023-05-09T00:54:12.437Z,2.60
2023-05-09T00:56:45.893Z,2.55
2023-05-09T00:59:17.550Z,2.05
2023-05-09T01:01:48.846Z,2.78
2023-05-09T01:04:20.698Z,2.55
2023-05-09T01:07:01.269Z,2.85
2023-05-09T01:09:40.786Z,2.75
2023-05-09T01:12:25.738Z,2.78
2023-05-09T01:15:07.073Z,2.88
2023-05-09T01:17:47.518Z,2.47
2023-05-09T01:20:27.362Z,2.10
2023-05-09T01:23:13.876Z,2.42
2023-05-09T01:26:01.076Z,2.10
2023-05-09T01:28:52.079Z,2.33
2023-05-09T01:31:26.976Z,2.45
2023-05-09T01:34:01.437Z,2.35
2023-05-09T01:36:35.908Z,2.25
2023-05-09T01:39:07.693Z,2.00
2023-05-09T01:41:41.716Z,2.25
2023-05-09T01:44:15.593Z,2.22
2023-05-09T01:46:50.154Z,2.03
2023-05-09T01:49:21.790Z,1.92
2023-05-09T01:51:54.209Z,1.92
2023-05-09T01:54:28.512Z,1.80
2023-05-09T01:57:00.112Z,2.13
2023-05-09T01:59:33.237Z,1.95
2023-05-09T02:02:07.376Z,1.85
2023-05-09T02:04:40.031Z,1.80
2023-05-09T02:07:11.998Z,2.03
2023-05-09T02:09:42.880Z,2.08
2023-05-09T02:12:13.726Z,2.15
2023-05-09T02:14:44.662Z,1.40
2023-05-09T02:17:18.281Z,1.38
2023-05-09T02:19:49.219Z,1.38
2023-05-09T02:22:20.265Z,1.60
2023-05-09T02:24:51.179Z,1.10
2023-05-09T02:27:27.339Z,0.90
2023-05-09T02:30:03.153Z,1.20
2023-05-09T02:32:38.997Z,1.17
2023-05-09T02:35:12.621Z,1.00
2023-05-09T02:37:44.023Z,1.38
2023-05-09T02:40:16.558Z,0.90
2023-05-09T02:42:47.485Z,1.00
2023-05-09T02:45:18.464Z,0.85
2023-05-09T02:47:52.046Z,0.98
2023-05-09T02:50:23.214Z,1.02
2023-05-09T02:52:54.145Z,1.05
2023-05-09T02:55:25.857Z,0.95
2023-05-09T02:58:05.614Z,0.90
2023-05-09T03:00:43.930Z,0.90
2023-05-09T03:03:19.503Z,0.77
2023-05-09T03:05:50.894Z,0.70
2023-05-09T03:08:21.742Z,0.60
2023-05-09T03:10:52.880Z,1.00
2023-05-09T03:13:23.821Z,0.75
2023-05-09T03:15:55.164Z,0.70
2023-05-09T03:18:28.821Z,0.60
2023-05-09T03:20:59.710Z,0.77
2023-05-09T03:23:31.241Z,0.60
2023-05-09T03:26:02.855Z,0.60
2023-05-09T03:28:34.421Z,0.70
2023-05-09T03:31:09.283Z,0.70
2023-05-09T03:33:43.145Z,0.50
2023-05-09T03:36:14.171Z,0.40
2023-05-09T03:38:47.266Z,0.60
2023-05-09T03:41:20.905Z,0.80
2023-05-09T03:43:52.616Z,0.77
2023-05-09T03:46:23.506Z,0.63
2023-05-09T03:48:57.052Z,0.60
2023-05-09T03:51:28.513Z,0.50
2023-05-09T03:54:00.831Z,0.63
2023-05-09T03:56:32.364Z,0.52
2023-05-09T03:59:03.869Z,0.65
2023-05-09T04:01:37.300Z,0.68
2023-05-09T04:04:15.151Z,0.55
2023-05-09T04:06:47.652Z,0.45
2023-05-09T04:09:20.711Z,0.50
2023-05-09T04:11:52.273Z,0.60
2023-05-09T04:14:23.118Z,0.50
2023-05-09T04:16:55.358Z,0.40
2023-05-09T04:19:28.828Z,0.30
2023-05-09T04:21:59.703Z,0.50
2023-05-09T04:24:30.891Z,0.50
2023-05-09T04:27:02.400Z,0.43
2023-05-09T04:29:33.386Z,0.60
2023-05-09T04:32:05.387Z,0.57
2023-05-09T04:34:38.868Z,0.55
2023-05-09T04:37:17.403Z,0.40
2023-05-09T04:39:49.266Z,0.50
2023-05-09T04:42:28.781Z,0.40
2023-05-09T04:44:59.632Z,0.45
2023-05-09T04:47:32.733Z,0.40
2023-05-09T04:50:06.275Z,0.30
2023-05-09T04:52:37.178Z,0.30
2023-05-09T04:55:08.998Z,0.40
2023-05-09T04:57:44.539Z,0.50
2023-05-09T05:00:18.052Z,0.30
2023-05-09T05:02:50.594Z,0.20
2023-05-09T05:05:25.006Z,0.30
2023-05-09T05:07:57.237Z,0.30
2023-05-09T05:10:33.423Z,0.30
2023-05-09T05:13:10.013Z,0.35
2023-05-09T05:15:45.253Z,0.40
2023-05-09T05:18:18.269Z,0.30
2023-05-09T05:20:51.864Z,0.32
2023-05-09T05:23:22.772Z,0.20
2023-05-09T05:25:57.156Z,0.35
2023-05-09T05:28:28.856Z,0.40
2023-05-09T05:31:00.216Z,0.32
2023-05-09T05:33:31.314Z,0.40
2023-05-09T05:36:05.567Z,0.40
2023-05-09T05:38:36.491Z,0.25
2023-05-09T05:41:11.506Z,0.40
2023-05-09T05:43:45.905Z,0.35
2023-05-09T05:46:19.812Z,0.40
2023-05-09T05:48:51.218Z,0.47
2023-05-09T05:51:24.876Z,0.40
2023-05-09T05:53:56.136Z,0.22
2023-05-09T05:56:28.434Z,0.40
2023-05-09T05:59:00.410Z,0.60
2023-05-09T06:01:31.828Z,0.43
2023-05-09T06:04:02.842Z,0.40
2023-05-09T06:06:38.723Z,0.90
2023-05-09T06:09:09.832Z,0.63
2023-05-09T06:11:41.254Z,0.73
2023-05-09T06:14:12.123Z,0.80
2023-05-09T06:16:43.453Z,0.68
2023-05-09T06:19:14.473Z,0.80
2023-05-09T06:21:47.927Z,0.68
2023-05-09T06:24:27.952Z,0.63
2023-05-09T06:27:06.000Z,0.40
2023-05-09T06:29:36.893Z,0.80
2023-05-09T06:32:08.322Z,0.60
2023-05-09T06:34:39.347Z,0.70
2023-05-09T06:37:12.807Z,0.80
2023-05-09T06:39:43.695Z,0.80
2023-05-09T06:42:14.664Z,0.68
2023-05-09T06:44:48.018Z,0.85
2023-05-09T06:47:19.025Z,0.80
2023-05-09T06:49:50.058Z,0.57
2023-05-09T06:52:23.822Z,0.75
2023-05-09T06:54:54.949Z,0.80
2023-05-09T06:57:25.823Z,1.35
2023-05-09T06:59:56.925Z,0.98
2023-05-09T07:02:27.867Z,0.82
2023-05-09T07:04:59.165Z,0.52
2023-05-09T07:07:32.710Z,0.80
2023-05-09T07:10:11.403Z,0.77
2023-05-09T07:12:43.521Z,2.78
2023-05-09T07:15:22.751Z,0.80
2023-05-09T07:18:00.193Z,0.80
2023-05-09T07:20:31.337Z,0.60
2023-05-09T07:23:08.400Z,0.75
2023-05-09T07:25:43.033Z,0.80
2023-05-09T07:28:17.837Z,0.88
2023-05-09T07:30:52.091Z,0.70
2023-05-09T07:33:25.270Z,0.75
2023-05-09T07:35:56.401Z,0.60
2023-05-09T07:38:32.494Z,0.85
2023-05-09T07:41:03.984Z,0.55
2023-05-09T07:43:35.220Z,0.50
2023-05-09T07:46:06.350Z,0.50
2023-05-09T07:48:37.444Z,1.13
2023-05-09T07:51:09.001Z,0.50
2023-05-09T07:53:42.530Z,0.75
2023-05-09T07:56:13.778Z,1.08
2023-05-09T07:58:44.764Z,0.60
2023-05-09T08:01:15.951Z,0.55
2023-05-09T08:03:47.054Z,0.70
2023-05-09T08:06:18.220Z,0.60
2023-05-09T08:08:51.736Z,0.90
2023-05-09T08:11:23.155Z,0.80
2023-05-09T08:13:54.322Z,1.45
2023-05-09T08:16:25.375Z,1.40
2023-05-09T08:18:56.353Z,1.05
2023-05-09T08:21:27.414Z,0.95
2023-05-09T08:24:02.151Z,1.13
2023-05-09T08:26:33.024Z,0.80
2023-05-09T08:29:04.188Z,0.90
2023-05-09T08:31:35.177Z,2.33
2023-05-09T08:34:06.213Z,1.05
2023-05-09T08:36:37.615Z,1.33
2023-05-09T08:39:11.095Z,1.77
2023-05-09T08:41:43.115Z,1.33
2023-05-09T08:44:14.416Z,1.52
2023-05-09T08:46:51.242Z,2.45
2023-05-09T08:49:23.667Z,2.65
2023-05-09T08:51:55.078Z,0.82
2023-05-09T08:54:29.877Z,1.35
2023-05-09T08:57:05.880Z,1.50
2023-05-09T08:59:42.576Z,1.20
2023-05-09T09:02:18.014Z,1.77
2023-05-09T09:04:53.436Z,1.75
2023-05-09T09:07:27.692Z,1.67
2023-05-09T09:10:11.933Z,2.00
2023-05-09T09:12:49.482Z,1.65
2023-05-09T09:15:27.702Z,0.90
2023-05-09T09:18:10.699Z,1.38
2023-05-09T09:20:51.932Z,1.08
2023-05-09T09:23:26.668Z,1.23
2023-05-09T09:26:05.964Z,1.00
2023-05-09T09:28:37.592Z,1.08
2023-05-09T09:31:23.812Z,1.40
2023-05-09T09:33:54.884Z,1.02
2023-05-09T09:36:32.829Z,1.05
2023-05-09T09:39:05.971Z,1.77
2023-05-09T09:41:41.115Z,0.77
2023-05-09T09:44:12.881Z,1.88
2023-05-09T09:46:48.182Z,1.88
2023-05-09T09:49:20.110Z,1.40
2023-05-09T09:51:54.956Z,1.80
2023-05-09T09:54:26.551Z,1.83
2023-05-09T09:57:00.154Z,1.50
2023-05-09T09:59:31.275Z,1.65
2023-05-09T10:02:07.434Z,1.80
2023-05-09T10:07:15.020Z,2.17
2023-05-09T10:09:49.001Z,2.60
2023-05-09T10:12:23.888Z,2.05
2023-05-09T10:14:54.928Z,2.95
2023-05-09T10:17:27.746Z,2.03
2023-05-09T10:19:59.667Z,1.27
2023-05-09T10:22:32.179Z,1.38
2023-05-09T10:25:08.247Z,1.23
2023-05-09T10:27:44.955Z,1.30
2023-05-09T10:30:20.461Z,1.38
2023-05-09T10:32:55.886Z,2.15
2023-05-09T10:35:30.220Z,1.90
2023-05-09T10:38:01.760Z,1.80
2023-05-09T10:40:33.324Z,1.35
2023-05-09T10:43:07.525Z,1.42
2023-05-09T10:45:38.945Z,1.48
2023-05-09T10:48:10.666Z,1.30
2023-05-09T10:50:42.989Z,1.23
2023-05-09T10:53:16.599Z,1.50
2023-05-09T10:55:55.758Z,1.67
2023-05-09T10:58:33.837Z,2.15
2023-05-09T11:01:06.316Z,1.38
2023-05-09T11:03:58.658Z,1.95
2023-05-09T11:06:51.525Z,2.55
2023-05-09T11:09:33.307Z,2.30
2023-05-09T11:12:15.785Z,1.20
2023-05-09T11:14:52.056Z,1.20
2023-05-09T11:17:32.812Z,1.60
2023-05-09T11:20:06.874Z,0.90
2023-05-09T11:22:43.316Z,1.10
2023-05-09T11:25:17.313Z,1.00
2023-05-09T11:27:50.272Z,1.25
2023-05-09T11:30:24.627Z,1.63
2023-05-09T11:32:59.239Z,1.00
2023-05-09T11:35:31.972Z,1.45
2023-05-09T11:38:38.928Z,0.98
2023-05-09T11:41:10.585Z,1.75
2023-05-09T11:43:42.469Z,1.45
2023-05-09T11:46:17.182Z,1.23
2023-05-09T11:48:48.102Z,1.30
2023-05-09T11:51:21.447Z,1.13
2023-05-09T11:53:54.359Z,1.05
2023-05-09T11:56:26.140Z,0.95
2023-05-09T11:58:57.146Z,1.02
2023-05-09T12:01:31.905Z,1.00
2023-05-09T12:04:03.210Z,1.40
2023-05-09T12:06:34.284Z,1.48
2023-05-09T12:09:05.459Z,1.10
2023-05-09T12:11:37.598Z,1.35
2023-05-09T12:14:08.680Z,0.90
2023-05-09T12:16:49.033Z,0.90
2023-05-09T12:19:22.361Z,1.60
2023-05-09T12:21:57.446Z,1.13
2023-05-09T12:24:30.251Z,0.88
2023-05-09T12:27:03.749Z,1.00
2023-05-09T12:29:35.427Z,1.52
2023-05-09T12:32:09.521Z,1.00
2023-05-09T12:34:40.750Z,1.10
2023-05-09T12:37:19.286Z,1.10
2023-05-09T12:40:05.301Z,1.25
2023-05-09T12:42:36.929Z,1.35
2023-05-09T12:45:12.079Z,1.00
2023-05-09T12:47:46.146Z,1.38
2023-05-09T12:50:17.191Z,1.20
2023-05-09T12:53:02.848Z,0.85
2023-05-09T12:55:41.984Z,1.15
2023-05-09T12:58:12.929Z,1.23
2023-05-09T13:00:47.054Z,1.48
2023-05-09T13:03:29.897Z,1.40
2023-05-09T13:06:05.071Z,1.13
2023-05-09T13:08:36.340Z,1.30
2023-05-09T13:11:16.221Z,1.50
2023-05-09T13:13:48.477Z,1.20
2023-05-09T13:16:19.535Z,1.40
2023-05-09T13:18:55.827Z,1.15
2023-05-09T13:21:26.839Z,1.55
2023-05-09T13:23:57.868Z,1.63
2023-05-09T13:26:29.292Z,1.15
2023-05-09T13:29:00.540Z,1.30
2023-05-09T13:31:31.724Z,1.45
2023-05-09T13:34:05.205Z,0.95
2023-05-09T13:36:36.478Z,0.68
2023-05-09T13:39:07.596Z,1.10
2023-05-09T13:41:38.628Z,0.95
2023-05-09T13:44:09.845Z,0.77
2023-05-09T13:46:53.542Z,1.08
2023-05-09T13:49:28.016Z,0.65
2023-05-09T13:51:59.128Z,1.00
2023-05-09T13:54:35.314Z,0.60
2023-05-09T13:57:08.220Z,0.70
2023-05-09T13:59:41.494Z,0.80
2023-05-09T14:02:13.465Z,0.50
2023-05-09T14:04:48.033Z,0.45
2023-05-09T14:07:19.018Z,0.70
2023-05-09T14:09:53.980Z,0.77
2023-05-09T14:12:29.858Z,0.40
2023-05-09T14:15:01.019Z,0.40
2023-05-09T14:17:32.101Z,0.50
2023-05-09T14:20:06.796Z,0.40
2023-05-09T14:22:38.087Z,0.35
2023-05-09T14:25:09.958Z,0.30
2023-05-09T14:27:40.843Z,0.30
2023-05-09T14:30:13.693Z,0.40
2023-05-09T14:32:45.260Z,0.30
2023-05-09T14:35:19.177Z,0.20
2023-05-09T14:37:50.099Z,0.40
2023-05-09T14:40:24.187Z,0.30
2023-05-09T14:42:55.163Z,0.30
2023-05-09T14:45:26.822Z,0.20
2023-05-09T14:47:57.946Z,0.45
2023-05-09T14:50:32.378Z,0.30
2023-05-09T14:53:04.091Z,0.20
2023-05-09T14:55:35.109Z,0.30
2023-05-09T14:58:06.519Z,0.35
2023-05-09T15:00:38.087Z,0.20
2023-05-09T15:03:09.031Z,0.25
2023-05-09T15:05:43.887Z,0.15
2023-05-09T15:08:14.979Z,0.22
2023-05-09T15:10:47.005Z,0.30
2023-05-09T15:13:18.766Z,0.28
2023-05-09T15:15:49.863Z,0.32
2023-05-09T15:18:21.927Z,0.20
2023-05-09T15:20:55.445Z,0.40
2023-05-09T15:23:26.683Z,0.38
2023-05-09T15:25:57.756Z,0.35
2023-05-09T15:28:28.744Z,0.38
2023-05-09T15:31:00.419Z,0.30
2023-05-09T15:33:31.538Z,0.30
2023-05-09T15:36:05.297Z,0.30
2023-05-09T15:38:36.231Z,0.28
2023-05-09T15:41:07.117Z,0.40
2023-05-09T15:43:38.185Z,0.30
2023-05-09T15:46:09.390Z,0.32
2023-05-09T15:48:40.277Z,0.45
2023-05-09T15:51:15.802Z,0.50
2023-05-09T15:54:10.778Z,0.50
2023-05-09T15:56:41.749Z,0.80
2023-05-09T15:59:12.980Z,0.60
2023-05-09T16:01:44.025Z,0.55
2023-05-09T16:04:15.048Z,0.82
2023-05-09T16:06:49.608Z,0.88
2023-05-09T16:09:21.007Z,0.75
2023-05-09T16:11:51.990Z,0.73
2023-05-09T16:14:23.941Z,0.70
2023-05-09T16:16:55.016Z,0.80
2023-05-09T16:19:26.524Z,0.80
2023-05-09T16:22:00.353Z,0.90
2023-05-09T16:24:32.086Z,0.90
2023-05-09T16:27:03.129Z,0.77
2023-05-09T16:29:34.073Z,0.93
2023-05-09T16:32:05.191Z,1.00
2023-05-09T16:34:36.361Z,1.10
2023-05-09T16:37:09.997Z,0.90
2023-05-09T16:39:41.458Z,1.00
2023-05-09T16:42:12.742Z,1.13
2023-05-09T16:44:43.885Z,1.40
2023-05-09T16:47:14.875Z,1.10
2023-05-09T16:49:46.282Z,1.35
2023-05-09T16:52:19.877Z,1.10
2023-05-09T16:54:50.788Z,1.58
2023-05-09T16:57:21.758Z,1.08
2023-05-09T16:59:53.624Z,0.95
2023-05-09T17:02:24.583Z,0.90
2023-05-09T17:04:55.635Z,1.15
2023-05-09T17:07:29.122Z,0.80
2023-05-09T17:10:00.234Z,0.88
2023-05-09T17:12:31.272Z,1.00
2023-05-09T17:15:02.258Z,0.90
2023-05-09T17:17:33.366Z,0.90
2023-05-09T17:20:05.201Z,0.90
2023-05-09T17:22:38.945Z,0.75
2023-05-09T17:25:11.088Z,1.23
2023-05-09T17:27:47.487Z,0.95
2023-05-09T17:30:29.614Z,1.75
2023-05-09T17:33:07.173Z,0.90
2023-05-09T17:35:40.908Z,1.00
2023-05-09T17:38:14.410Z,0.73
2023-05-09T17:40:45.338Z,1.05
2023-05-09T17:43:16.598Z,1.50
2023-05-09T17:45:48.508Z,1.33
2023-05-09T17:48:19.643Z,0.75
2023-05-09T17:50:50.952Z,1.10
2023-05-09T17:53:26.004Z,1.10
2023-05-09T17:55:58.264Z,1.10
2023-05-09T17:58:30.073Z,0.98
2023-05-09T18:01:01.827Z,1.38
2023-05-09T18:03:33.229Z,0.85
2023-05-09T18:06:05.354Z,1.20
2023-05-09T18:08:39.885Z,1.15
2023-05-09T18:11:11.065Z,1.10
2023-05-09T18:13:42.346Z,1.20
2023-05-09T18:16:13.940Z,1.20
2023-05-09T18:18:48.089Z,1.00
2023-05-09T18:21:19.124Z,1.30
2023-05-09T18:23:53.060Z,1.13
2023-05-09T18:26:24.201Z,1.33
2023-05-09T18:28:55.110Z,1.10
2023-05-09T18:31:26.292Z,1.00
2023-05-09T18:33:57.752Z,1.40
2023-05-09T18:36:30.397Z,1.52
2023-05-09T18:39:04.853Z,1.27
2023-05-09T18:41:36.329Z,1.17
2023-05-09T18:44:07.538Z,1.40
2023-05-09T18:46:40.325Z,0.93
2023-05-09T18:49:11.524Z,1.05
2023-05-09T18:51:42.368Z,1.00
2023-05-09T18:54:17.541Z,0.75
2023-05-09T18:56:48.425Z,1.40
2023-05-09T18:59:19.305Z,0.80
2023-05-09T19:01:50.320Z,0.60
2023-05-09T19:04:22.004Z,1.27
2023-05-09T19:06:53.465Z,0.77
2023-05-09T19:09:27.379Z,1.70
2023-05-09T19:12:00.134Z,1.25
2023-05-09T19:14:31.258Z,1.00
2023-05-09T19:17:03.075Z,0.98
2023-05-09T19:19:35.562Z,0.90
2023-05-09T19:22:07.648Z,1.33
2023-05-09T19:24:42.653Z,2.00
2023-05-09T19:27:13.905Z,1.67
2023-05-09T19:29:44.883Z,1.08
2023-05-09T19:32:15.868Z,1.02
2023-05-09T19:34:47.131Z,1.08
2023-05-09T19:37:18.449Z,0.90
2023-05-09T19:39:53.078Z,0.80
2023-05-09T19:42:24.227Z,0.88
2023-05-09T19:44:55.569Z,0.93
2023-05-09T19:47:29.286Z,0.50
2023-05-09T19:50:00.577Z,1.02
2023-05-09T19:52:32.106Z,0.95
2023-05-09T19:55:06.661Z,1.10
2023-05-09T19:57:37.841Z,0.70
2023-05-09T20:00:10.308Z,0.82
2023-05-09T20:02:43.302Z,1.00
2023-05-09T20:05:14.815Z,1.42
2023-05-09T20:07:46.681Z,0.90
2023-05-09T20:10:20.189Z,1.00
2023-05-09T20:12:51.301Z,0.85
2023-05-09T20:15:22.677Z,0.73
2023-05-09T20:17:57.789Z,0.77
2023-05-09T20:20:30.140Z,0.65
2023-05-09T20:23:02.280Z,0.60
2023-05-09T20:25:35.742Z,1.05
2023-05-09T20:28:06.769Z,0.63
2023-05-09T20:30:37.682Z,0.93
2023-05-09T20:33:08.859Z,0.52
2023-05-09T20:35:40.035Z,0.90
2023-05-09T20:38:10.928Z,1.20
2023-05-09T20:40:44.870Z,0.98
2023-05-09T20:43:16.005Z,1.02
2023-05-09T20:45:47.145Z,1.42
2023-05-09T20:48:18.113Z,1.15
2023-05-09T20:50:49.600Z,0.77
2023-05-09T20:53:20.568Z,1.42
2023-05-09T20:55:54.069Z,1.50
2023-05-09T20:58:25.102Z,0.90
2023-05-09T21:00:55.989Z,0.82
2023-05-09T21:03:27.030Z,1.55
2023-05-09T21:05:57.989Z,0.98
2023-05-09T21:08:30.042Z,0.70
2023-05-09T21:11:03.659Z,0.80
2023-05-09T21:13:34.574Z,1.38
2023-05-09T21:16:06.564Z,0.80
2023-05-09T21:18:37.442Z,0.75
2023-05-09T21:21:10.615Z,0.95
2023-05-09T21:23:41.618Z,0.77
2023-05-09T21:26:15.480Z,0.70
2023-05-09T21:28:46.608Z,0.90
2023-05-09T21:31:17.723Z,0.75
2023-05-09T21:33:48.831Z,0.93
2023-05-09T21:36:19.689Z,0.88
2023-05-09T21:38:50.525Z,0.75
2023-05-09T21:41:24.307Z,0.82
2023-05-09T21:43:55.213Z,0.68
2023-05-09T21:46:26.155Z,0.82
2023-05-09T21:48:57.132Z,1.02
2023-05-09T21:51:28.184Z,0.80
2023-05-09T21:53:59.098Z,0.82
2023-05-09T21:56:33.465Z,0.90
2023-05-09T21:59:04.389Z,0.77
2023-05-09T22:01:35.291Z,1.13
2023-05-09T22:04:07.513Z,1.15
2023-05-09T22:06:38.351Z,0.80
2023-05-09T22:09:09.158Z,1.30
2023-05-09T22:11:42.958Z,1.00
2023-05-09T22:14:13.917Z,1.10
2023-05-09T22:16:44.895Z,0.90
2023-05-09T22:19:15.783Z,1.23
2023-05-09T22:21:49.307Z,1.20
2023-05-09T22:24:20.096Z,1.90
2023-05-09T22:26:53.515Z,1.02
2023-05-09T22:29:24.374Z,1.45
2023-05-09T22:31:55.846Z,1.42
2023-05-09T22:34:26.805Z,1.13
2023-05-09T22:36:57.672Z,0.98
2023-05-09T22:39:28.688Z,1.58
2023-05-09T22:42:02.838Z,1.10
2023-05-09T22:44:33.684Z,1.27
2023-05-09T22:47:04.659Z,1.88
2023-05-09T22:49:35.770Z,1.73
2023-05-09T22:52:06.952Z,1.05
2023-05-09T22:54:37.908Z,0.93
2023-05-09T22:57:11.603Z,1.40
2023-05-09T22:59:42.425Z,2.17
2023-05-09T23:02:13.428Z,1.30
2023-05-09T23:04:44.334Z,1.15
2023-05-09T23:07:16.552Z,1.75
2023-05-09T23:09:47.549Z,1.25
2023-05-09T23:12:20.997Z,1.58
2023-05-09T23:14:52.025Z,1.75
2023-05-09T23:17:23.345Z,1.13
2023-05-09T23:19:54.289Z,1.65
2023-05-09T23:22:25.123Z,1.35
2023-05-09T23:24:56.259Z,1.45
2023-05-09T23:27:31.546Z,1.15
2023-05-09T23:30:03.000Z,1.77
2023-05-09T23:32:33.931Z,1.52
2023-05-09T23:35:04.808Z,2.00
2023-05-09T23:37:35.884Z,1.30
2023-05-09T23:40:07.247Z,1.58
2023-05-09T23:42:40.659Z,1.70
2023-05-09T23:45:13.160Z,1.52
2023-05-09T23:47:43.987Z,1.27
2023-05-09T23:50:15.136Z,1.25
2023-05-09T23:52:49.470Z,2.15
2023-05-09T23:55:20.917Z,2.00
2023-05-09T23:57:54.457Z,1.70
